createdAt,value
2019-04-19T18:35:33.746Z,20.78
2019-04-19T18:36:26.861Z,20.85
2019-04-19T18:37:17.213Z,20.85
2019-04-19T18:38:26.465Z,20.85
2019-04-19T18:39:14.068Z,20.84
2019-04-19T18:40:15.332Z,21.02
2019-04-19T18:41:15.414Z,21.02
2019-04-19T18:42:13.636Z,21.02
2019-04-19T18:43:56.939Z,20.88
2019-04-19T18:44:58.144Z,20.88
2019-04-19T18:45:42.409Z,20.82
2019-04-19T18:46:35.029Z,20.81
2019-04-19T18:47:35.041Z,20.72
2019-04-19T18:48:34.034Z,20.72
2019-04-19T18:49:34.170Z,20.82
2019-04-19T18:50:49.243Z,20.82
2019-04-19T18:51:49.786Z,20.88
2019-04-19T18:53:07.160Z,20.77
2019-04-19T18:54:13.200Z,20.77
2019-04-19T18:55:13.973Z,20.66
2019-04-19T18:55:58.916Z,20.67
2019-04-19T18:57:07.745Z,20.7
2019-04-19T18:57:54.261Z,20.67
2019-04-19T18:58:50.646Z,20.74
2019-04-19T19:00:02.144Z,20.67
2019-04-19T19:00:57.620Z,20.66
2019-04-19T19:01:52.118Z,20.62
2019-04-19T19:03:05.082Z,20.63
2019-04-19T19:03:54.044Z,20.55
2019-04-19T19:05:05.164Z,20.56
2019-04-19T19:06:07.477Z,20.44
2019-04-19T19:06:55.149Z,20.43
2019-04-19T19:08:06.449Z,20.34
2019-04-19T19:09:10.988Z,20.34
2019-04-19T19:10:03.684Z,20.4
2019-04-19T19:11:03.029Z,20.29
2019-04-19T19:12:08.765Z,20.28
2019-04-19T19:12:54.018Z,20.24
2019-04-19T19:13:51.145Z,20.31
2019-04-19T19:15:04.689Z,20.37
2019-04-19T19:16:00.040Z,20.37
2019-04-19T19:17:06.713Z,20.34
2019-04-19T19:18:02.883Z,20.31
2019-04-19T19:19:01.390Z,20.25
2019-04-19T19:19:54.590Z,20.21
2019-04-19T19:21:05.191Z,20.22
2019-04-19T19:21:55.914Z,20.13
2019-04-19T19:23:42.637Z,20.06
2019-04-19T19:25:36.986Z,20.03
2019-04-19T19:26:52.346Z,20.06
2019-04-19T19:27:35.433Z,20.21
2019-04-19T19:28:28.388Z,20.25
2019-04-19T19:29:25.900Z,20.21
2019-04-19T19:30:26.641Z,20.14
2019-04-19T19:31:27.009Z,20.16
2019-04-19T19:32:27.557Z,20
2019-04-19T19:33:44.244Z,19.85
2019-04-19T19:40:19.533Z,19.48
2019-04-19T19:42:39.838Z,19.34
2019-04-19T19:44:11.476Z,19.31
2019-04-19T19:45:43.426Z,19.31
2019-04-19T19:48:24.520Z,19.26
2019-04-19T19:52:51.048Z,19.07
2019-04-19T19:55:46.734Z,18.7
2019-04-19T19:57:52.489Z,18.55
2019-04-19T19:59:02.079Z,18.5
2019-04-19T20:00:14.833Z,18.43
2019-04-19T20:01:53.679Z,18.26
2019-04-19T20:03:17.299Z,18.22
2019-04-19T20:03:56.150Z,18.2
2019-04-19T20:04:53.258Z,18.16
2019-04-19T20:05:56.500Z,18.03
2019-04-19T20:07:14.300Z,17.97
2019-04-19T20:07:55.936Z,17.92
2019-04-19T20:08:57.904Z,17.87
2019-04-19T20:10:09.181Z,17.78
2019-04-19T20:10:56.393Z,17.76
2019-04-19T20:11:50.540Z,17.74
2019-04-19T20:13:09.380Z,17.68
2019-04-19T20:14:02.501Z,17.68
2019-04-19T20:15:00.003Z,17.67
2019-04-19T20:15:54.482Z,17.63
2019-04-19T20:16:53.783Z,17.6
2019-04-19T20:18:01.773Z,17.64
2019-04-19T20:19:02.381Z,17.59
2019-04-19T20:19:56.164Z,17.48
2019-04-19T20:20:50.701Z,17.51
2019-04-19T20:22:07.583Z,17.48
2019-04-19T20:22:56.143Z,17.38
2019-04-19T20:24:37.720Z,17.38
2019-04-19T20:26:01.004Z,17.36
2019-04-19T20:27:09.355Z,17.31
2019-04-19T20:27:56.537Z,17.19
2019-04-19T20:28:45.138Z,17.2
2019-04-19T20:29:43.484Z,17.22
2019-04-19T20:30:52.232Z,17.12
2019-04-19T20:31:46.704Z,17.11
2019-04-19T20:32:44.681Z,17.01
2019-04-19T20:34:00.246Z,16.99
2019-04-19T20:34:43.680Z,16.94
2019-04-19T20:35:44.892Z,16.93
2019-04-19T20:36:49.228Z,16.84
2019-04-19T20:37:40.393Z,16.83
2019-04-19T20:39:00.995Z,16.86
2019-04-19T20:39:45.314Z,16.76
2019-04-19T20:40:58.629Z,16.71
2019-04-19T20:41:58.532Z,16.78
2019-04-19T20:43:45.725Z,16.71
2019-04-19T20:45:12.412Z,16.65
2019-04-19T20:46:09.546Z,16.54
2019-04-19T20:46:50.893Z,16.6
2019-04-19T20:48:07.476Z,16.51
2019-04-19T20:49:08.618Z,16.51
2019-04-19T20:49:54.522Z,16.41
2019-04-19T20:51:33.398Z,16.39
2019-04-19T20:52:45.242Z,16.29
2019-04-19T20:54:24.044Z,16.15
2019-04-19T20:58:27.183Z,16.09
2019-04-19T20:59:04.982Z,16.09
2019-04-19T21:00:06.032Z,15.97
2019-04-19T21:00:58.779Z,15.98
2019-04-19T21:01:59.049Z,15.94
2019-04-19T21:02:59.255Z,15.84
2019-04-19T21:04:09.678Z,15.84
2019-04-19T21:05:10.919Z,15.83
2019-04-19T21:06:01.825Z,15.77
2019-04-19T21:07:11.664Z,15.77
2019-04-19T21:08:13.007Z,15.77
2019-04-19T21:09:01.223Z,15.76
2019-04-19T21:10:09.773Z,15.65
2019-04-19T21:11:11.145Z,15.61
2019-04-19T21:11:58.683Z,15.73
2019-04-19T21:13:15.889Z,15.72
2019-04-19T21:14:05.431Z,15.64
2019-04-19T21:15:22.264Z,15.51
2019-04-19T21:15:58.849Z,15.58
2019-04-19T21:17:08.928Z,15.42
2019-04-19T21:18:01.260Z,15.4
2019-04-19T21:19:12.241Z,15.35
2019-04-19T21:19:58.550Z,15.25
2019-04-19T21:21:16.136Z,15.24
2019-04-19T21:22:04.156Z,15.36
2019-04-19T21:23:13.370Z,15.25
2019-04-19T21:24:13.608Z,15.25
2019-04-19T21:25:32.768Z,15.15
2019-04-19T21:26:16.594Z,15.19
2019-04-19T21:27:27.811Z,15.15
2019-04-19T21:28:08.408Z,15.15
2019-04-19T21:29:03.827Z,15.18
2019-04-19T21:30:14.626Z,15.06
2019-04-19T21:31:09.610Z,14.99
2019-04-19T21:32:06.918Z,15.02
2019-04-19T21:33:17.476Z,14.99
2019-04-19T21:34:10.935Z,15.11
2019-04-19T21:35:14.406Z,15
2019-04-19T21:36:15.088Z,14.96
2019-04-19T21:37:08.930Z,14.92
2019-04-19T21:38:19.266Z,14.89
2019-04-19T21:39:16.957Z,14.88
2019-04-19T21:40:04.133Z,14.86
2019-04-19T21:41:19.941Z,14.89
2019-04-19T21:42:10.076Z,14.78
2019-04-19T21:43:11.082Z,14.78
2019-04-19T21:44:04.709Z,14.78
2019-04-19T21:45:09.955Z,14.63
2019-04-19T21:46:03.548Z,14.68
2019-04-19T21:47:12.341Z,14.6
2019-04-19T21:48:05.714Z,14.7
2019-04-19T21:49:14.195Z,14.59
2019-04-19T21:50:07.084Z,14.6
2019-04-19T21:51:02.427Z,14.6
2019-04-19T21:52:20.814Z,14.51
2019-04-19T21:53:12.838Z,14.45
2019-04-19T21:54:02.986Z,14.45
2019-04-19T21:55:37.190Z,14.45
2019-04-19T21:56:18.828Z,14.44
2019-04-19T21:57:05.041Z,14.41
2019-04-19T21:58:22.926Z,14.36
2019-04-19T21:59:07.277Z,14.33
2019-04-19T22:00:22.950Z,14.3
2019-04-19T22:01:20.732Z,14.32
2019-04-19T22:02:06.090Z,14.23
2019-04-19T22:03:16.941Z,14.22
2019-04-19T22:04:14.018Z,14.23
2019-04-19T22:05:11.564Z,14.23
2019-04-19T22:06:24.659Z,14.3
2019-04-19T22:07:11.442Z,14.2
2019-04-19T22:08:05.962Z,14.18
2019-04-19T22:09:24.066Z,14.15
2019-04-19T22:10:09.435Z,14.17
2019-04-19T22:11:06.485Z,14.22
2019-04-19T22:12:06.095Z,14.12
2019-04-19T22:13:04.712Z,14.05
2019-04-19T22:14:04.969Z,14.05
2019-04-19T22:15:15.778Z,13.97
2019-04-19T22:16:08.370Z,13.99
2019-04-19T22:17:16.756Z,13.95
2019-04-19T22:18:11.650Z,13.93
2019-04-19T22:19:05.928Z,13.83
2019-04-19T22:20:24.340Z,13.79
2019-04-19T22:21:10.510Z,13.85
2019-04-19T22:22:08.912Z,13.78
2019-04-19T22:23:14.464Z,13.72
2019-04-19T22:24:06.694Z,13.7
2019-04-19T22:25:43.199Z,13.71
2019-04-19T22:26:45.795Z,13.67
2019-04-19T22:27:21.217Z,13.7
2019-04-19T22:28:21.861Z,13.71
2019-04-19T22:29:22.088Z,13.7
2019-04-19T22:30:21.230Z,13.6
2019-04-19T22:31:35.762Z,13.71
2019-04-19T22:32:26.865Z,13.65
2019-04-19T22:33:21.006Z,13.71
2019-04-19T22:34:22.222Z,13.59
2019-04-19T22:35:30.282Z,13.59
2019-04-19T22:36:23.532Z,13.5
2019-04-19T22:37:37.103Z,13.46
2019-04-19T22:38:27.546Z,13.44
2019-04-19T22:39:21.743Z,13.41
2019-04-19T22:40:21.268Z,13.42
2019-04-19T22:41:28.799Z,13.37
2019-04-19T22:42:22.413Z,13.35
2019-04-19T22:43:22.408Z,13.38
2019-04-19T22:44:22.807Z,13.41
2019-04-19T22:45:28.648Z,13.38
2019-04-19T22:46:22.064Z,13.37
2019-04-19T22:47:33.679Z,13.35
2019-04-19T22:48:26.666Z,13.37
2019-04-19T22:49:22.318Z,13.37
2019-04-19T22:50:36.015Z,13.33
2019-04-19T22:51:24.525Z,13.3
2019-04-19T22:52:21.272Z,13.23
2019-04-19T22:53:38.987Z,13.25
2019-04-19T22:54:22.318Z,13.22
2019-04-19T22:55:25.201Z,13.23
2019-04-19T22:56:51.471Z,13.18
2019-04-19T22:57:47.059Z,13.23
2019-04-19T22:58:35.147Z,13.18
2019-04-19T22:59:27.805Z,13.25
2019-04-19T23:00:38.489Z,13.18
2019-04-19T23:01:31.234Z,13.22
2019-04-19T23:02:22.962Z,13.22
2019-04-19T23:03:38.636Z,13.19
2019-04-19T23:04:31.277Z,13.22
2019-04-19T23:05:25.011Z,13.08
2019-04-19T23:06:32.197Z,13.03
2019-04-19T23:07:24.749Z,13.11
2019-04-19T23:08:44.394Z,13.03
2019-04-19T23:09:28.408Z,12.98
2019-04-19T23:10:24.245Z,13.01
2019-04-19T23:11:23.963Z,12.94
2019-04-19T23:12:24.457Z,12.87
2019-04-19T23:13:23.162Z,12.94
2019-04-19T23:14:41.782Z,12.82
2019-04-19T23:15:35.854Z,12.83
2019-04-19T23:16:23.988Z,12.83
2019-04-19T23:17:42.936Z,12.82
2019-04-19T23:18:30.991Z,12.76
2019-04-19T23:19:25.406Z,12.67
2019-04-19T23:20:31.267Z,12.73
2019-04-19T23:21:29.043Z,12.68
2019-04-19T23:22:33.895Z,12.72
2019-04-19T23:23:34.934Z,12.64
2019-04-19T23:24:25.458Z,12.64
2019-04-19T23:25:42.231Z,12.64
2019-04-19T23:27:21.432Z,12.65
2019-04-19T23:28:28.144Z,12.64
2019-04-19T23:29:00.238Z,12.61
2019-04-19T23:30:00.596Z,12.55
2019-04-19T23:31:14.573Z,12.61
2019-04-19T23:32:01.742Z,12.6
2019-04-19T23:33:13.177Z,12.49
2019-04-19T23:34:11.293Z,12.47
2019-04-19T23:35:02.489Z,12.47
2019-04-19T23:35:59.738Z,12.42
2019-04-19T23:37:14.943Z,12.37
2019-04-19T23:37:59.009Z,12.31
2019-04-19T23:39:14.373Z,12.36
2019-04-19T23:40:01.685Z,12.32
2019-04-19T23:40:59.471Z,12.2
2019-04-19T23:42:00.690Z,12.2
2019-04-19T23:43:03.948Z,12.21
2019-04-19T23:44:01.980Z,12.24
2019-04-19T23:45:06.183Z,12.2
2019-04-19T23:46:01.154Z,12.18
2019-04-19T23:47:06.658Z,12.25
2019-04-19T23:47:58.654Z,12.21
2019-04-19T23:49:14.503Z,12.25
2019-04-19T23:50:01.371Z,12.21
2019-04-19T23:51:00.022Z,12.35
2019-04-19T23:51:59.561Z,12.27
2019-04-19T23:53:06.040Z,12.27
2019-04-19T23:53:58.661Z,12.25
2019-04-19T23:55:00.043Z,12.15
2019-04-19T23:56:00.326Z,12.21
2019-04-19T23:57:23.637Z,12.18
2019-04-19T23:58:03.401Z,12.2
2019-04-19T23:59:10.640Z,12.21
